Time;durP1;ratioP1;P1;durP2;ratioP2;P2;SDS_P1;SDS_P2;PMS_P1;PMS_P2;Temp;Humidity;BMP_temperature;BMP_pressure;BME280_temperature;BME280_humidity;BME280_pressure;Samples;Min_cycle;Max_cycle;Signal;HPM_P1;HPM_P2
2021/10/31 00:02:13;;;;;;;20.60;12.55;;;;;;;1.53;100.00;93746.34;5131095;27;20486;-81
2021/10/31 00:04:40;;;;;;;18.73;12.48;;;;;;;1.37;100.00;93722.41;5131224;27;20081;-81
2021/10/31 00:07:07;;;;;;;24.05;14.73;;;;;;;1.44;100.00;93747.97;5130806;27;20043;-81
2021/10/31 00:09:35;;;;;;;22.02;13.52;;;;;;;1.31;100.00;93726.28;5130928;27;20047;-81
2021/10/31 00:12:02;;;;;;;20.10;13.00;;;;;;;1.43;100.00;93747.16;5130885;27;20051;-81
2021/10/31 00:14:29;;;;;;;16.92;11.18;;;;;;;1.44;100.00;93746.22;5130522;27;20496;-80
2021/10/31 00:16:59;;;;;;;18.10;10.65;;;;;;;1.35;100.00;93739.47;5130814;27;20051;-81
2021/10/31 00:19:26;;;;;;;18.02;10.88;;;;;;;1.29;100.00;93740.03;5130651;27;20104;-81
2021/10/31 00:21:53;;;;;;;16.02;10.52;;;;;;;1.27;100.00;93750.31;5130479;27;20039;-80
2021/10/31 00:24:20;;;;;;;17.73;11.50;;;;;;;1.23;100.00;93748.16;5130301;27;20047;-81
2021/10/31 00:26:49;;;;;;;19.35;13.27;;;;;;;1.09;100.00;93732.50;5130514;27;20092;-81
2021/10/31 00:29:16;;;;;;;20.05;13.10;;;;;;;1.14;100.00;93737.16;5130380;27;20092;-80
2021/10/31 00:31:43;;;;;;;18.83;12.88;;;;;;;1.17;100.00;93742.72;5130811;27;20050;-81
2021/10/31 00:34:10;;;;;;;18.65;11.60;;;;;;;1.16;100.00;93740.34;5130263;27;20047;-80
2021/10/31 00:36:37;;;;;;;21.15;12.48;;;;;;;1.19;100.00;93740.06;5130758;27;20060;-80
2021/10/31 00:39:04;;;;;;;19.80;12.43;;;;;;;1.16;100.00;93740.34;5130564;27;20141;-80
2021/10/31 00:41:31;;;;;;;18.52;11.95;;;;;;;1.14;100.00;93737.97;5130323;27;20423;-81
2021/10/31 00:43:59;;;;;;;19.10;11.30;;;;;;;1.15;100.00;93746.34;5130814;27;20043;-81
2021/10/31 00:46:26;;;;;;;18.77;12.55;;;;;;;1.00;100.00;93729.06;5130265;27;20104;-81
2021/10/31 00:48:53;;;;;;;18.65;11.38;;;;;;;1.07;100.00;93739.44;5130736;27;20058;-80
2021/10/31 00:51:20;;;;;;;18.05;12.00;;;;;;;1.05;100.00;93744.66;5130293;27;20047;-80
2021/10/31 00:53:47;;;;;;;19.05;11.50;;;;;;;1.04;100.00;93739.72;5130465;28;20047;-80
2021/10/31 00:56:14;;;;;;;27.27;16.10;;;;;;;1.01;100.00;93729.84;5130645;28;20051;-81
2021/10/31 00:58:41;;;;;;;20.95;13.38;;;;;;;0.95;100.00;93730.41;5130743;28;21402;-82
2021/10/31 01:01:09;;;;;;;20.98;13.38;;;;;;;0.85;100.00;93717.78;5130632;28;20051;-81
2021/10/31 01:03:37;;;;;;;23.40;14.30;;;;;;;0.61;100.00;93702.13;5131543;28;20458;-81
2021/10/31 01:06:42;;;;;;;22.42;14.10;;;;;;;0.80;100.00;93731.63;5131272;28;20515;-81
2021/10/31 01:09:18;;;;;;;20.63;13.88;;;;;;;0.82;100.00;93728.97;5100039;28;20094;-81
2021/10/31 01:11:57;;;;;;;21.85;14.13;;;;;;;0.82;100.00;93721.41;5134885;27;20258;-81
2021/10/31 01:14:48;;;;;;;29.48;18.17;;;;;;;0.76;100.00;93732.06;5135181;27;20047;-81
2021/10/31 01:17:34;;;;;;;30.10;19.98;;;;;;;0.34;100.00;93692.75;5135253;27;20046;-81
2021/10/31 01:20:13;;;;;;;30.38;21.10;;;;;;;0.65;100.00;93731.28;5135165;27;20058;-81
2021/10/31 01:23:14;;;;;;;32.05;21.05;;;;;;;0.73;100.00;93723.03;5135030;27;20054;-81
2021/10/31 01:26:12;;;;;;;32.97;19.48;;;;;;;0.79;100.00;93719.94;5135415;27;20046;-83
2021/10/31 01:28:55;;;;;;;37.13;20.77;;;;;;;0.67;100.00;93693.22;5134499;27;20053;-83
2021/10/31 01:31:34;;;;;;;31.45;18.58;;;;;;;0.82;100.00;93713.81;5134917;27;20075;-83
2021/10/31 01:34:13;;;;;;;31.40;18.65;;;;;;;0.75;100.00;93697.59;5135270;27;20043;-83
2021/10/31 01:36:50;;;;;;;28.75;18.05;;;;;;;0.82;100.00;93713.81;5134837;27;20051;-83
2021/10/31 01:39:22;;;;;;;30.50;17.02;;;;;;;0.59;100.00;93681.25;5135264;27;20065;-83
2021/10/31 01:41:54;;;;;;;27.95;17.25;;;;;;;0.69;100.00;93696.41;5134780;27;20047;-84
2021/10/31 01:44:35;;;;;;;25.17;16.88;;;;;;;0.71;100.00;93706.38;5135256;27;20047;-83
2021/10/31 01:47:07;;;;;;;24.80;14.70;;;;;;;0.71;100.00;93697.09;5134818;27;20048;-83
2021/10/31 01:49:46;;;;;;;20.60;12.85;;;;;;;0.49;100.00;93683.81;5134986;27;20070;-83
2021/10/31 01:52:18;;;;;;;19.65;11.77;;;;;;;0.60;100.00;93700.53;5134997;27;20057;-80
2021/10/31 01:54:50;;;;;;;18.92;11.35;;;;;;;0.52;100.00;93696.16;5135071;27;20051;-80
2021/10/31 01:57:21;;;;;;;16.67;10.98;;;;;;;0.59;100.00;93703.22;5134595;27;20051;-80
2021/10/31 01:59:54;;;;;;;22.23;13.13;;;;;;;0.50;100.00;93700.56;5134639;27;20051;-80
2021/10/31 02:02:23;;;;;;;21.20;13.40;;;;;;;0.47;100.00;93698.31;5133898;27;20140;-80
2021/10/31 02:04:53;;;;;;;22.88;14.13;;;;;;;0.29;100.00;93674.66;5132876;27;20058;-82
2021/10/31 02:07:20;;;;;;;25.35;15.50;;;;;;;0.49;100.00;93693.94;5133273;27;20043;-81
2021/10/31 02:09:50;;;;;;;22.80;14.57;;;;;;;0.54;100.00;93698.56;5133160;27;20047;-81
2021/10/31 02:12:18;;;;;;;28.20;14.55;;;;;;;0.49;100.00;93681.28;5133434;27;20050;-82
2021/10/31 02:14:46;;;;;;;22.13;12.85;;;;;;;0.58;100.00;93696.56;5133340;27;20625;-82
2021/10/31 02:17:14;;;;;;;20.88;12.68;;;;;;;0.50;100.00;93698.03;5133626;27;20066;-83
2021/10/31 02:19:44;;;;;;;21.65;12.32;;;;;;;0.49;100.00;93693.13;5133616;27;20051;-83
2021/10/31 02:22:19;;;;;;;22.73;13.10;;;;;;;0.49;100.00;93696.47;5132706;27;20067;-83
2021/10/31 02:24:47;;;;;;;20.10;11.93;;;;;;;0.29;100.00;93677.19;5133383;27;20055;-85
2021/10/31 02:27:16;;;;;;;20.40;12.10;;;;;;;0.46;100.00;93699.25;5133077;27;20051;-81
2021/10/31 02:29:48;;;;;;;21.73;12.60;;;;;;;0.34;100.00;93685.97;5133331;27;20484;-82
2021/10/31 02:32:15;;;;;;;19.40;11.27;;;;;;;0.36;100.00;93685.81;5132460;27;20043;-81
2021/10/31 02:34:42;;;;;;;16.80;10.23;;;;;;;0.46;100.00;93689.13;5132856;27;20116;-81
2021/10/31 02:37:10;;;;;;;15.48;10.32;;;;;;;0.52;100.00;93690.34;5132508;27;20460;-81
2021/10/31 02:39:37;;;;;;;16.65;10.07;;;;;;;0.53;100.00;93676.75;5132353;27;20054;-82
2021/10/31 02:42:06;;;;;;;13.82;9.02;;;;;;;0.56;100.00;93686.59;5132659;27;20385;-83
2021/10/31 02:44:33;;;;;;;16.80;9.88;;;;;;;0.18;100.00;93630.13;5132336;27;20120;-82
2021/10/31 02:47:00;;;;;;;13.35;9.70;;;;;;;0.47;100.00;93679.81;5132209;27;20039;-81
2021/10/31 02:49:29;;;;;;;13.93;10.00;;;;;;;0.42;100.00;93677.72;5132086;27;20099;-81
2021/10/31 02:52:00;;;;;;;16.13;9.90;;;;;;;0.34;100.00;93662.41;5132169;27;20047;-81
2021/10/31 02:54:36;;;;;;;13.15;8.80;;;;;;;0.41;100.00;93670.25;5132385;27;20043;-81
2021/10/31 02:57:13;;;;;;;13.93;9.20;;;;;;;0.26;100.00;93670.66;5132022;27;20606;-81
2021/10/31 02:59:46;;;;;;;16.05;9.18;;;;;;;0.05;100.00;93646.34;5131917;27;20047;-81
2021/10/31 03:02:14;;;;;;;16.73;9.95;;;;;;;0.22;100.00;93677.72;5131942;27;20039;-82
2021/10/31 03:04:41;;;;;;;15.05;10.18;;;;;;;0.19;100.00;93667.09;5132205;27;20163;-81
2021/10/31 03:07:09;;;;;;;18.08;10.52;;;;;;;0.13;100.00;93665.88;5131900;27;20051;-81
2021/10/31 03:09:36;;;;;;;15.88;10.35;;;;;;;0.22;100.00;93674.41;5131872;27;20053;-82
2021/10/31 03:12:07;;;;;;;18.00;11.63;;;;;;;0.05;100.00;93653.16;5131691;27;20946;-82
2021/10/31 03:14:34;;;;;;;19.65;11.98;;;;;;;0.12;100.00;93672.69;5131671;27;20051;-83
2021/10/31 03:17:01;;;;;;;19.90;12.27;;;;;;;0.08;100.00;93678.13;5131905;27;20046;-82
2021/10/31 03:19:29;;;;;;;20.48;12.05;;;;;;;0.06;100.00;93677.47;5131326;27;20051;-82
2021/10/31 03:21:56;;;;;;;20.08;11.85;;;;;;;0.07;100.00;93681.59;5131823;27;20058;-81
2021/10/31 03:24:23;;;;;;;17.90;11.32;;;;;;;-0.02;100.00;93657.94;5131524;27;20454;-81
2021/10/31 03:26:50;;;;;;;17.98;11.80;;;;;;;0.11;100.00;93677.88;5131578;27;20111;-83
2021/10/31 03:29:21;;;;;;;19.77;12.30;;;;;;;0.07;100.00;93674.81;5131690;27;20054;-84
2021/10/31 03:31:48;;;;;;;15.80;10.93;;;;;;;0.11;100.00;93677.88;5131265;27;20051;-84
2021/10/31 03:34:15;;;;;;;17.40;11.57;;;;;;;-0.07;100.00;93655.00;5131341;27;20495;-83
2021/10/31 03:36:42;;;;;;;18.10;11.18;;;;;;;0.03;100.00;93673.47;5131741;27;20050;-83
2021/10/31 03:39:08;;;;;;;19.83;12.60;;;;;;;0.05;100.00;93679.19;5130880;27;20051;-83
2021/10/31 03:41:35;;;;;;;25.88;17.20;;;;;;;0.08;100.00;93676.41;5131128;27;20047;-83
2021/10/31 03:44:03;;;;;;;21.30;14.00;;;;;;;-0.16;100.00;93649.03;5131360;27;20435;-84
2021/10/31 03:46:32;;;;;;;19.10;12.52;;;;;;;0.01;100.00;93677.06;5130939;27;20079;-84
2021/10/31 03:48:59;;;;;;;19.40;12.35;;;;;;;-0.22;100.00;93652.09;5131494;27;20055;-84
2021/10/31 03:51:26;;;;;;;25.90;15.82;;;;;;;-0.22;100.00;93652.09;5131128;27;20043;-84
2021/10/31 03:53:53;;;;;;;25.77;15.25;;;;;;;-0.29;100.00;93657.66;5131327;27;20043;-82
2021/10/31 03:56:20;;;;;;;46.25;22.65;;;;;;;-0.26;100.00;93649.03;5130936;27;20043;-82
2021/10/31 03:58:46;;;;;;;45.25;28.77;;;;;;;-0.22;100.00;93679.84;5130589;27;20055;-83
2021/10/31 04:01:13;;;;;;;57.72;29.83;;;;;;;-0.15;100.00;93670.81;5131011;27;20051;-82
2021/10/31 04:03:43;;;;;;;38.75;21.33;;;;;;;-0.14;100.00;93675.75;5131065;27;20059;-82
2021/10/31 04:06:12;;;;;;;34.28;18.55;;;;;;;-0.11;100.00;93673.88;5130956;27;20051;-82
2021/10/31 04:08:40;;;;;;;28.05;16.67;;;;;;;-0.04;100.00;93675.72;5130726;27;20085;-82
2021/10/31 04:11:06;;;;;;;25.75;15.43;;;;;;;-0.09;100.00;93666.97;5130514;27;20492;-82
2021/10/31 04:13:33;;;;;;;29.83;19.05;;;;;;;-0.14;100.00;93670.69;5130563;27;20051;-82
2021/10/31 04:16:00;;;;;;;25.77;17.17;;;;;;;-0.19;100.00;93675.34;5130596;27;20055;-84
2021/10/31 04:18:27;;;;;;;34.33;21.58;;;;;;;-0.82;100.00;93591.44;5130743;27;20066;-83
2021/10/31 04:20:56;;;;;;;35.60;20.05;;;;;;;-0.43;100.00;93635.31;5130789;27;20100;-84
2021/10/31 04:23:23;;;;;;;30.58;20.33;;;;;;;-0.38;100.00;93647.56;5130882;27;20065;-84
2021/10/31 04:25:49;;;;;;;32.38;19.05;;;;;;;-0.46;100.00;93625.50;5130806;27;20066;-82
2021/10/31 04:28:17;;;;;;;27.85;18.25;;;;;;;-0.32;100.00;93644.50;5130387;27;20099;-82
2021/10/31 04:30:44;;;;;;;28.00;17.60;;;;;;;-0.23;100.00;93658.84;5130325;27;20043;-81
2021/10/31 04:33:11;;;;;;;22.77;15.07;;;;;;;-0.31;100.00;93661.25;5130550;27;20050;-81
2021/10/31 04:35:37;;;;;;;23.05;15.70;;;;;;;-0.38;100.00;93663.50;5130466;27;20043;-82
2021/10/31 04:38:11;;;;;;;24.80;16.25;;;;;;;-0.40;100.00;93662.84;5130259;27;20431;-82
2021/10/31 04:40:40;;;;;;;24.50;16.23;;;;;;;-0.47;100.00;93656.72;5130776;27;20419;-82
2021/10/31 04:43:10;;;;;;;29.25;18.27;;;;;;;-0.73;100.00;93609.28;5130431;27;20106;-82
2021/10/31 04:45:38;;;;;;;26.77;16.90;;;;;;;-0.50;100.00;93646.88;5129724;27;20047;-83
2021/10/31 04:48:05;;;;;;;23.25;15.40;;;;;;;-0.38;100.00;93655.91;5130563;27;20416;-83
2021/10/31 04:50:32;;;;;;;23.70;14.80;;;;;;;-0.44;100.00;93646.34;5130269;27;20054;-83
2021/10/31 04:52:59;;;;;;;23.85;15.05;;;;;;;-0.39;100.00;93654.34;5130380;27;20076;-82
2021/10/31 04:55:28;;;;;;;25.35;16.30;;;;;;;-0.54;100.00;93641.31;5130270;28;20870;-83
2021/10/31 04:57:56;;;;;;;27.80;16.63;;;;;;;-0.44;100.00;93657.25;5130261;28;20047;-82
2021/10/31 05:00:23;;;;;;;25.42;16.00;;;;;;;-0.51;100.00;93646.06;5130180;28;20078;-82
2021/10/31 05:02:51;;;;;;;23.48;14.13;;;;;;;-0.41;100.00;93662.03;5130200;28;20043;-82
2021/10/31 05:05:18;;;;;;;24.58;14.57;;;;;;;-0.42;100.00;93659.63;5129820;28;20138;-82
2021/10/31 05:07:45;;;;;;;21.58;14.40;;;;;;;-0.47;100.00;93654.19;5129852;28;20120;-81
2021/10/31 05:10:12;;;;;;;24.77;14.35;;;;;;;-0.59;100.00;93641.69;5130071;28;20074;-83
2021/10/31 05:12:40;;;;;;;29.45;17.00;;;;;;;-0.56;100.00;93641.44;5130250;28;20407;-82
2021/10/31 05:15:08;;;;;;;31.55;17.35;;;;;;;-0.64;100.00;93622.81;5129830;28;20045;-82
2021/10/31 05:17:35;;;;;;;31.33;19.63;;;;;;;-0.52;100.00;93646.22;5129224;28;20092;-81
2021/10/31 05:20:02;;;;;;;29.77;19.92;;;;;;;-0.61;100.00;93653.63;5129454;28;20049;-81
2021/10/31 05:25:51;;;;;;;32.83;21.67;;;;;;;-0.67;100.00;93654.16;5109754;28;20092;-83
2021/10/31 05:28:19;;;;;;;36.45;22.40;;;;;;;-0.70;100.00;93654.41;5105051;28;20054;-82
2021/10/31 05:30:46;;;;;;;34.17;21.90;;;;;;;-0.71;100.00;93653.63;5105591;28;20054;-82
2021/10/31 05:33:13;;;;;;;35.67;20.80;;;;;;;-0.76;100.00;93627.97;5105571;28;20055;-82
2021/10/31 05:35:41;;;;;;;33.33;20.52;;;;;;;-0.52;100.00;93659.63;5105675;28;20139;-84
2021/10/31 05:38:07;;;;;;;26.65;16.92;;;;;;;-0.48;100.00;93663.50;5105501;28;20082;-81
2021/10/31 05:40:34;;;;;;;24.88;15.38;;;;;;;-0.40;100.00;93660.31;5104938;28;20051;-82
2021/10/31 05:43:01;;;;;;;21.88;14.32;;;;;;;-0.39;100.00;93661.09;5104980;28;20047;-82
2021/10/31 05:45:29;;;;;;;21.33;13.70;;;;;;;-0.51;100.00;93646.06;5104975;28;20047;-82
2021/10/31 05:47:56;;;;;;;36.40;23.23;;;;;;;-0.30;100.00;93661.13;5104863;28;20519;-82
2021/10/31 05:50:24;;;;;;;28.70;17.90;;;;;;;-0.40;100.00;93645.16;5104813;28;20058;-82
2021/10/31 05:52:51;;;;;;;27.08;17.63;;;;;;;-0.25;100.00;93659.91;5104691;28;20100;-82
2021/10/31 05:55:18;;;;;;;35.30;17.63;;;;;;;-0.15;100.00;93655.66;5104835;28;20048;-83
2021/10/31 05:57:45;;;;;;;33.10;19.00;;;;;;;-0.06;100.00;93669.22;5105943;28;21378;-83
2021/10/31 06:00:15;;;;;;;63.53;30.02;;;;;;;-0.39;100.00;93613.13;5108530;28;20051;-82
2021/10/31 06:02:44;;;;;;;56.78;26.45;;;;;;;-0.06;100.00;93657.41;5108172;28;20518;-82
2021/10/31 06:05:12;;;;;;;36.00;20.67;;;;;;;0.02;100.00;93671.09;5108154;28;20045;-83
2021/10/31 06:07:39;;;;;;;36.20;22.27;;;;;;;0.00;100.00;93673.75;5105080;28;20150;-83
2021/10/31 06:10:17;;;;;;;39.67;25.13;;;;;;;-0.30;100.00;93617.41;5106319;28;20499;-84
2021/10/31 06:12:48;;;;;;;45.15;28.02;;;;;;;-0.34;100.00;93611.00;5107170;28;20066;-84
2021/10/31 06:15:18;;;;;;;46.90;29.10;;;;;;;-0.34;100.00;93601.72;5107905;28;20486;-84
2021/10/31 06:17:46;;;;;;;45.65;26.48;;;;;;;0.20;100.00;93661.09;5107703;28;20062;-84
2021/10/31 06:20:14;;;;;;;56.97;34.60;;;;;;;0.26;100.00;93652.97;5107620;28;20047;-84
2021/10/31 06:22:41;;;;;;;260.02;122.38;;;;;;;0.44;100.00;93658.16;5107906;28;20073;-84
2021/10/31 06:25:13;;;;;;;89.25;50.97;;;;;;;0.66;100.00;93671.41;5107639;28;20523;-84
2021/10/31 06:27:40;;;;;;;88.50;54.20;;;;;;;0.65;100.00;93662.22;5107930;28;20447;-84
2021/10/31 06:30:11;;;;;;;79.00;45.47;;;;;;;0.64;100.00;93643.72;5107944;28;20058;-84
2021/10/31 06:32:41;;;;;;;93.28;56.72;;;;;;;0.83;100.00;93653.91;5108742;28;20039;-86
2021/10/31 06:35:10;;;;;;;86.05;53.25;;;;;;;1.11;100.00;93677.50;5107640;28;20051;-86
2021/10/31 06:37:37;;;;;;;58.65;34.58;;;;;;;1.23;100.00;93683.19;5107246;28;20044;-85
2021/10/31 06:40:04;;;;;;;75.03;47.53;;;;;;;1.28;100.00;93665.03;5107769;28;20055;-85
2021/10/31 06:42:55;;;;;;;80.75;50.97;;;;;;;0.63;100.00;93561.22;5108235;28;20055;-85
2021/10/31 06:45:32;;;;;;;61.08;38.60;;;;;;;1.18;100.00;93622.06;5107994;28;20138;-86
2021/10/31 06:48:09;;;;;;;52.70;33.33;;;;;;;1.67;100.00;93672.41;5108329;28;20048;-86
2021/10/31 06:50:37;;;;;;;53.45;33.80;;;;;;;1.59;100.00;93644.47;5107664;28;20035;-86
2021/10/31 06:53:04;;;;;;;51.60;32.47;;;;;;;1.96;100.00;93679.03;5107710;28;20040;-86
2021/10/31 06:55:33;;;;;;;51.17;32.45;;;;;;;2.11;100.00;93670.91;5107643;28;20142;-85
2021/10/31 06:58:01;;;;;;;55.97;33.75;;;;;;;2.30;100.00;93671.69;5107896;28;20065;-85
2021/10/31 07:00:29;;;;;;;51.22;32.53;;;;;;;2.43;100.00;93671.28;5107889;28;20074;-84
2021/10/31 07:02:56;;;;;;;62.92;38.17;;;;;;;2.64;100.00;93679.34;5107849;28;20052;-84
2021/10/31 07:05:23;;;;;;;51.45;31.80;;;;;;;2.88;100.00;93669.50;5107460;28;20063;-85
2021/10/31 07:07:51;;;;;;;54.70;32.80;;;;;;;3.02;100.00;93666.38;5107321;28;20044;-84
2021/10/31 07:10:18;;;;;;;52.92;34.40;;;;;;;3.13;100.00;93667.88;5107810;28;20039;-85
2021/10/31 07:12:45;;;;;;;55.17;33.40;;;;;;;3.20;100.00;93653.63;5108029;28;20414;-84
2021/10/31 07:15:12;;;;;;;59.58;36.45;;;;;;;3.06;100.00;93601.69;5107574;28;20506;-85
2021/10/31 07:17:39;;;;;;;60.53;33.45;;;;;;;3.43;100.00;93637.03;5107758;28;20071;-84
2021/10/31 07:20:08;;;;;;;66.90;37.38;;;;;;;3.73;100.00;93657.72;5107525;28;20080;-84
2021/10/31 07:22:35;;;;;;;58.55;34.40;;;;;;;3.88;100.00;93657.91;5107076;28;20108;-84
2021/10/31 07:25:07;;;;;;;73.10;40.00;;;;;;;3.98;100.00;93648.41;5107304;28;20135;-84
2021/10/31 07:27:34;;;;;;;68.35;38.05;;;;;;;4.08;100.00;93650.00;5107180;28;20571;-83
2021/10/31 07:30:02;;;;;;;74.68;41.05;;;;;;;4.05;100.00;93624.88;5107709;28;20051;-85
2021/10/31 07:32:29;;;;;;;81.40;42.47;;;;;;;4.25;100.00;93645.69;5107306;28;20056;-84
2021/10/31 07:34:56;;;;;;;92.78;51.08;;;;;;;4.20;100.00;93613.13;5107242;28;20469;-85
2021/10/31 07:37:23;;;;;;;97.35;56.22;;;;;;;3.95;100.00;93548.78;5107295;28;20108;-86
2021/10/31 07:39:55;;;;;;;73.65;42.10;;;;;;;4.72;100.00;93641.66;5107366;28;20055;-85
2021/10/31 07:42:28;;;;;;;69.10;39.00;;;;;;;4.83;100.00;93635.44;5106648;28;20529;-84
2021/10/31 07:44:55;;;;;;;61.30;36.17;;;;;;;4.93;100.00;93640.34;5107132;28;20458;-85
2021/10/31 07:47:22;;;;;;;59.63;34.08;;;;;;;5.11;100.00;93641.88;5106576;28;20484;-84
2021/10/31 07:49:50;;;;;;;50.25;29.25;;;;;;;5.19;100.00;93629.13;5106911;28;20051;-84
2021/10/31 07:52:17;;;;;;;52.85;28.75;;;;;;;5.13;100.00;93627.25;5107096;28;20070;-84
2021/10/31 07:54:44;;;;;;;48.42;29.23;;;;;;;5.17;100.00;93620.84;5106966;28;20073;-84
2021/10/31 07:57:11;;;;;;;53.15;26.55;;;;;;;5.34;100.00;93624.13;5106477;28;20048;-83
2021/10/31 07:59:40;;;;;;;46.53;25.65;;;;;;;5.31;100.00;93611.69;5106462;28;20055;-83
2021/10/31 08:02:07;;;;;;;39.78;23.17;;;;;;;5.37;100.00;93620.44;5107163;28;20051;-83
2021/10/31 08:04:34;;;;;;;42.58;23.60;;;;;;;5.56;100.00;93625.09;5106812;28;20104;-83
2021/10/31 08:07:01;;;;;;;43.85;23.83;;;;;;;5.69;100.00;93618.69;5106747;28;20055;-83
2021/10/31 08:09:28;;;;;;;39.80;22.17;;;;;;;5.95;100.00;93618.34;5106603;28;20055;-83
2021/10/31 08:11:54;;;;;;;43.50;24.08;;;;;;;6.05;100.00;93600.28;5106371;28;20404;-83
2021/10/31 08:14:21;;;;;;;40.42;22.08;;;;;;;6.22;100.00;93595.84;5106426;28;20047;-83
2021/10/31 08:16:49;;;;;;;41.13;21.25;;;;;;;6.40;100.00;93605.69;5100726;28;20067;-83
2021/10/31 08:19:23;;;;;;;33.42;19.35;;;;;;;6.61;100.00;93611.13;5104102;28;20126;-83
2021/10/31 08:21:50;;;;;;;35.90;19.88;;;;;;;6.59;100.00;93607.94;5105557;28;20082;-82
2021/10/31 08:24:17;;;;;;;36.08;20.48;;;;;;;6.72;100.00;93603.03;5105397;28;20051;-82
2021/10/31 08:26:44;;;;;;;31.60;18.60;;;;;;;6.37;100.00;93567.00;5106210;28;20048;-83
2021/10/31 08:29:13;;;;;;;27.17;17.80;;;;;;;6.82;100.00;93595.88;5105881;28;20046;-83
2021/10/31 08:31:41;;;;;;;27.23;17.13;;;;;;;6.93;100.00;93598.97;5105584;28;20051;-83
2021/10/31 08:34:10;;;;;;;24.13;14.93;;;;;;;6.84;100.00;93595.69;5105706;28;20079;-83
2021/10/31 08:36:37;;;;;;;30.98;17.60;;;;;;;6.82;100.00;93593.31;5105864;28;20141;-83
2021/10/31 08:39:05;;;;;;;36.88;19.65;;;;;;;7.14;100.00;93588.03;5105254;28;20103;-84
2021/10/31 08:41:32;;;;;;;36.38;18.63;;;;;;;7.35;100.00;93577.06;5103164;28;20101;-83
2021/10/31 08:44:00;;;;;;;36.22;20.52;;;;;;;7.52;99.25;93558.13;5099879;28;20134;-84
2021/10/31 08:46:28;;;;;;;37.97;19.55;;;;;;;7.83;97.11;93587.75;5099620;28;20052;-84
2021/10/31 08:48:56;;;;;;;38.70;19.38;;;;;;;8.00;96.14;93583.16;5099789;28;20056;-83
2021/10/31 08:51:25;;;;;;;37.10;20.13;;;;;;;8.05;95.97;93574.94;5099842;28;21282;-83
2021/10/31 08:53:52;;;;;;;30.98;18.58;;;;;;;8.15;94.82;93557.50;5100251;28;20052;-83
2021/10/31 08:56:19;;;;;;;30.52;17.02;;;;;;;8.42;94.14;93570.47;5100205;28;20492;-84
2021/10/31 08:58:46;;;;;;;28.23;16.77;;;;;;;8.26;92.47;93544.19;5099483;28;20046;-84
2021/10/31 09:01:16;;;;;;;30.08;15.50;;;;;;;8.51;92.31;93554.00;5099641;28;20573;-83
2021/10/31 09:03:43;;;;;;;27.83;14.77;;;;;;;8.64;92.13;93548.19;5100329;28;20054;-84
2021/10/31 09:06:11;;;;;;;28.23;16.52;;;;;;;8.77;91.25;93544.91;5098568;28;20059;-85
2021/10/31 09:08:41;;;;;;;23.38;15.60;;;;;;;8.89;89.04;93554.63;5100411;28;20080;-84
2021/10/31 09:11:08;;;;;;;25.38;15.35;;;;;;;9.04;88.80;93539.91;5100898;28;20845;-85
2021/10/31 09:13:35;;;;;;;26.73;17.08;;;;;;;9.31;89.22;93546.88;5101292;28;20054;-85
2021/10/31 09:16:02;;;;;;;27.45;16.88;;;;;;;9.33;88.02;93520.06;5101101;28;20039;-85
2021/10/31 09:18:29;;;;;;;23.77;14.23;;;;;;;9.54;83.82;93525.25;5104132;28;20424;-85
2021/10/31 09:20:55;;;;;;;30.17;14.95;;;;;;;9.32;85.62;93469.00;5103101;28;20142;-85
2021/10/31 09:23:24;;;;;;;22.58;14.18;;;;;;;10.02;85.01;93548.19;5100680;28;20039;-85
2021/10/31 09:25:52;;;;;;;17.80;11.77;;;;;;;10.15;81.89;93554.28;5100298;28;20074;-84
2021/10/31 09:28:19;;;;;;;18.35;12.32;;;;;;;10.24;80.89;93553.09;5100680;28;20052;-83
2021/10/31 09:30:46;;;;;;;18.30;12.65;;;;;;;10.19;81.48;93511.03;5100450;28;20062;-84
2021/10/31 09:33:14;;;;;;;21.80;13.80;;;;;;;10.52;80.82;93510.22;5104997;28;20039;-84
2021/10/31 09:35:46;;;;;;;18.88;12.82;;;;;;;10.35;77.82;93526.03;5104362;28;20050;-84
2021/10/31 09:38:15;;;;;;;19.88;13.63;;;;;;;10.64;79.50;93530.94;5104012;28;20115;-85
2021/10/31 09:40:42;;;;;;;19.33;13.00;;;;;;;10.78;78.25;93529.91;5104572;28;20120;-85
2021/10/31 09:43:10;;;;;;;18.55;12.05;;;;;;;10.53;77.34;93466.38;5104552;28;20416;-85
2021/10/31 09:45:38;;;;;;;16.50;11.48;;;;;;;10.69;75.54;93472.00;5104091;28;20391;-85
2021/10/31 09:48:06;;;;;;;17.60;11.52;;;;;;;10.96;75.82;93510.47;5104259;28;20056;-85
2021/10/31 09:50:36;;;;;;;25.13;16.48;;;;;;;11.19;77.34;93515.13;5103858;28;20519;-85
2021/10/31 09:53:03;;;;;;;17.25;10.95;;;;;;;11.28;75.39;93492.53;5104138;28;20283;-85
2021/10/31 09:55:30;;;;;;;17.77;12.07;;;;;;;11.07;74.59;93458.41;5103703;28;20668;-85
2021/10/31 09:58:00;;;;;;;15.23;11.52;;;;;;;11.47;75.29;93506.25;5104214;28;20047;-86
2021/10/31 10:00:39;;;;;;;20.98;13.60;;;;;;;11.23;72.83;93472.56;5104397;28;20055;-84
2021/10/31 10:03:25;;;;;;;17.10;11.80;;;;;;;11.40;72.98;93466.13;5103598;28;20066;-85
2021/10/31 10:06:11;;;;;;;17.98;11.80;;;;;;;11.71;73.37;93480.00;5103499;28;20150;-85
2021/10/31 10:08:39;;;;;;;15.73;10.65;;;;;;;11.59;71.27;93474.72;5103979;28;20058;-84
2021/10/31 10:11:18;;;;;;;14.23;10.38;;;;;;;11.43;70.32;93484.50;5104104;28;20047;-84
2021/10/31 10:13:45;;;;;;;15.55;10.23;;;;;;;11.53;73.21;93465.25;5103682;28;21278;-85
2021/10/31 10:16:27;;;;;;;20.73;13.75;;;;;;;11.77;71.46;93461.13;5103239;28;20052;-85
2021/10/31 10:18:55;;;;;;;23.25;13.90;;;;;;;12.03;70.64;93485.84;5102877;28;20507;-84
2021/10/31 10:21:23;;;;;;;68.05;33.80;;;;;;;12.11;70.78;93473.72;5103429;28;20047;-84
2021/10/31 10:23:52;;;;;;;134.23;61.67;;;;;;;11.96;70.22;93417.41;5102372;28;20047;-84
2021/10/31 10:26:31;;;;;;;40.67;22.48;;;;;;;12.44;68.56;93475.19;5103177;28;20534;-84
2021/10/31 10:29:10;;;;;;;21.70;12.98;;;;;;;12.55;66.62;93455.69;5103263;28;20618;-84
2021/10/31 10:31:39;;;;;;;20.17;12.60;;;;;;;12.75;66.77;93463.19;5103288;28;20048;-85
2021/10/31 10:34:06;;;;;;;53.22;29.40;;;;;;;12.79;65.46;93440.31;5102941;28;20059;-84
2021/10/31 10:36:38;;;;;;;75.72;44.85;;;;;;;12.89;63.78;93445.75;5103244;28;20078;-85
2021/10/31 10:39:07;;;;;;;30.02;18.77;;;;;;;13.21;64.05;93455.06;5103365;28;20408;-85
2021/10/31 10:41:43;;;;;;;26.30;17.98;;;;;;;13.30;63.92;93437.47;5103149;28;20048;-85
2021/10/31 10:44:28;;;;;;;36.65;25.70;;;;;;;13.43;61.78;93426.19;5102260;28;20499;-85
2021/10/31 10:47:02;;;;;;;16.17;11.25;;;;;;;13.51;61.89;93417.38;5102846;28;20074;-85
2021/10/31 10:49:32;;;;;;;16.38;12.30;;;;;;;13.75;63.09;93425.91;5103018;28;20500;-85
2021/10/31 10:52:21;;;;;;;16.08;11.50;;;;;;;13.89;62.05;93403.25;5103161;28;20134;-87
2021/10/31 10:54:56;;;;;;;18.10;12.77;;;;;;;13.87;60.64;93387.19;5102239;28;20048;-86
2021/10/31 10:57:24;;;;;;;;;;;;;;;14.31;60.07;93417.81;5103399;28;20048;-86
2021/10/31 10:59:53;;;;;;;20.50;12.20;;;;;;;14.35;59.79;93415.56;5103029;28;20337;-84
2021/10/31 11:02:22;;;;;;;14.90;10.45;;;;;;;13.90;58.41;93343.59;5103362;28;20090;-85
2021/10/31 11:04:54;;;;;;;14.52;10.88;;;;;;;14.40;58.74;93406.09;5099471;28;20573;-85
2021/10/31 11:07:30;;;;;;;15.38;10.52;;;;;;;13.91;60.34;93398.63;5100411;28;20415;-85
2021/10/31 11:09:57;;;;;;;14.25;9.35;;;;;;;13.90;57.19;93399.66;5101835;28;20094;-86
2021/10/31 11:12:26;;;;;;;14.38;10.52;;;;;;;14.13;60.14;93398.81;5080091;28;20044;-85
2021/10/31 11:14:56;;;;;;;14.27;10.57;;;;;;;14.20;59.38;93382.44;5074585;28;20063;-86
2021/10/31 11:17:24;;;;;;;12.70;9.05;;;;;;;13.78;58.34;93309.28;5061841;28;20052;-86
2021/10/31 11:19:53;;;;;;;12.93;9.55;;;;;;;14.28;58.55;93379.50;5061780;28;20052;-85
2021/10/31 11:22:21;;;;;;;19.00;12.65;;;;;;;14.43;60.11;93397.09;5062059;28;20167;-85
2021/10/31 11:24:49;;;;;;;15.65;10.27;;;;;;;14.51;58.57;93389.00;5061777;28;20052;-85
2021/10/31 11:27:18;;;;;;;16.00;10.25;;;;;;;14.51;58.70;93383.81;5061351;28;20054;-85
2021/10/31 11:29:45;;;;;;;17.10;9.82;;;;;;;14.60;57.97;93386.81;5061853;28;20041;-85
2021/10/31 11:32:13;;;;;;;12.70;9.45;;;;;;;14.63;56.88;93383.00;5061690;28;20053;-84